createdAt,value
2023-01-10T00:01:45.556Z,7.47
2023-01-10T00:04:15.138Z,6.93
2023-01-10T00:06:42.978Z,7.88
2023-01-10T00:09:11.078Z,7.85
2023-01-10T00:11:57.205Z,6.43
2023-01-10T00:14:26.937Z,5.90
2023-01-10T00:16:54.858Z,5.93
2023-01-10T00:19:24.209Z,7.22
2023-01-10T00:21:51.909Z,6.60
2023-01-10T00:24:19.732Z,5.90
2023-01-10T00:26:51.712Z,6.10
2023-01-10T00:29:20.772Z,6.25
2023-01-10T00:31:48.963Z,5.90
2023-01-10T00:34:16.990Z,6.57
2023-01-10T00:36:47.621Z,6.22
2023-01-10T00:39:15.844Z,6.35
2023-01-10T00:42:02.035Z,5.97
2023-01-10T00:44:29.900Z,6.82
2023-01-10T00:46:57.687Z,6.68
2023-01-10T00:49:25.482Z,5.93
2023-01-10T00:51:58.441Z,6.32
2023-01-10T00:54:26.841Z,6.45
2023-01-10T00:56:54.642Z,6.65
2023-01-10T00:59:22.866Z,6.18
2023-01-10T01:01:50.985Z,6.57
2023-01-10T01:04:19.104Z,6.50
2023-01-10T01:06:47.962Z,6.00
2023-01-10T01:09:17.606Z,5.93
2023-01-10T01:11:45.486Z,5.75
2023-01-10T01:14:13.348Z,5.75
2023-01-10T01:16:41.191Z,5.75
2023-01-10T01:19:08.912Z,6.03
2023-01-10T01:21:36.751Z,5.43
2023-01-10T01:24:04.571Z,5.80
2023-01-10T01:26:35.409Z,6.25
2023-01-10T01:29:02.988Z,6.38
2023-01-10T01:31:30.607Z,6.03
2023-01-10T01:33:58.423Z,5.32
2023-01-10T01:36:26.030Z,5.18
2023-01-10T01:38:53.735Z,5.50
2023-01-10T01:41:39.818Z,4.60
2023-01-10T01:44:14.831Z,4.47
2023-01-10T01:46:46.965Z,4.20
2023-01-10T01:49:20.500Z,4.13
2023-01-10T01:51:51.968Z,4.70
2023-01-10T01:54:20.300Z,5.10
2023-01-10T01:56:52.207Z,4.57
2023-01-10T01:59:24.782Z,4.53
2023-01-10T02:01:58.064Z,4.28
2023-01-10T02:04:29.872Z,4.60
2023-01-10T02:06:58.689Z,4.93
2023-01-10T02:09:32.812Z,4.53
2023-01-10T02:12:01.488Z,4.95
2023-01-10T02:14:32.065Z,4.55
2023-01-10T02:16:59.737Z,4.43
2023-01-10T02:19:39.199Z,4.40
2023-01-10T02:23:00.820Z,3.78
2023-01-10T02:26:08.531Z,2.92
2023-01-10T02:29:02.795Z,2.85
2023-01-10T02:32:05.881Z,3.00
2023-01-10T02:35:00.776Z,2.10
2023-01-10T02:37:41.273Z,2.20
2023-01-10T02:40:19.424Z,2.20
2023-01-10T02:42:55.313Z,2.17
2023-01-10T02:45:29.956Z,1.85
2023-01-10T02:47:58.923Z,1.95
2023-01-10T02:50:43.739Z,2.33
2023-01-10T02:53:15.553Z,1.85
2023-01-10T02:55:58.783Z,2.40
2023-01-10T02:58:40.844Z,1.50
2023-01-10T03:01:18.582Z,2.85
2023-01-10T03:03:52.787Z,2.38
2023-01-10T03:06:31.674Z,2.50
2023-01-10T03:09:06.896Z,2.40
2023-01-10T03:11:43.333Z,2.65
2023-01-10T03:14:19.085Z,2.78
2023-01-10T03:16:53.431Z,2.97
2023-01-10T03:19:24.711Z,2.55
2023-01-10T03:21:57.903Z,3.20
2023-01-10T03:24:30.477Z,1.73
2023-01-10T03:27:04.294Z,2.53
2023-01-10T03:29:37.427Z,2.45
2023-01-10T03:32:08.015Z,2.28
2023-01-10T03:34:36.564Z,2.53
2023-01-10T03:37:12.302Z,2.33
2023-01-10T03:39:49.385Z,2.03
2023-01-10T03:42:22.473Z,2.10
2023-01-10T03:44:58.797Z,2.05
2023-01-10T03:47:33.387Z,1.90
2023-01-10T03:50:06.959Z,1.80
2023-01-10T03:52:37.380Z,2.80
2023-01-10T03:55:07.619Z,1.80
2023-01-10T03:57:35.479Z,2.22
2023-01-10T04:00:04.865Z,1.90
2023-01-10T04:02:33.239Z,1.80
2023-01-10T04:05:01.309Z,2.13
2023-01-10T04:07:29.230Z,1.52
2023-01-10T04:09:59.017Z,1.80
2023-01-10T04:12:27.933Z,1.50
2023-01-10T04:14:56.787Z,2.00
2023-01-10T04:17:24.917Z,1.73
2023-01-10T04:19:52.869Z,1.42
2023-01-10T04:22:20.900Z,1.90
2023-01-10T04:24:51.431Z,2.05
2023-01-10T04:27:21.240Z,1.83
2023-01-10T04:29:49.375Z,1.67
2023-01-10T04:32:17.344Z,1.70
2023-01-10T04:34:45.435Z,1.20
2023-01-10T04:37:13.439Z,1.23
2023-01-10T04:39:41.552Z,1.33
2023-01-10T04:42:09.424Z,1.90
2023-01-10T04:44:38.874Z,1.50
2023-01-10T04:47:06.807Z,2.10
2023-01-10T04:49:34.784Z,1.63
2023-01-10T04:52:02.677Z,1.42
2023-01-10T04:54:30.492Z,1.45
2023-01-10T04:56:58.404Z,2.15
2023-01-10T04:59:26.191Z,1.55
2023-01-10T05:01:57.276Z,1.80
2023-01-10T05:04:25.441Z,1.88
2023-01-10T05:06:53.224Z,1.55
2023-01-10T05:09:21.262Z,2.38
2023-01-10T05:11:49.083Z,2.00
2023-01-10T05:14:17.011Z,1.90
2023-01-10T05:16:44.844Z,1.83
2023-01-10T05:19:14.247Z,1.50
2023-01-10T05:21:42.029Z,1.42
2023-01-10T05:24:10.321Z,1.60
2023-01-10T05:26:38.127Z,1.80
2023-01-10T05:29:06.015Z,2.05
2023-01-10T05:31:33.831Z,1.48
2023-01-10T05:34:02.468Z,1.60
2023-01-10T05:36:31.798Z,1.30
2023-01-10T05:38:59.779Z,1.88
2023-01-10T05:41:27.496Z,1.75
2023-01-10T05:43:55.346Z,1.58
2023-01-10T05:46:23.183Z,1.30
2023-01-10T05:48:52.830Z,1.45
2023-01-10T05:51:20.759Z,1.52
2023-01-10T05:53:50.440Z,1.50
2023-01-10T05:56:18.760Z,1.23
2023-01-10T05:58:49.291Z,1.38
2023-01-10T06:01:17.522Z,1.52
2023-01-10T06:03:45.555Z,1.92
2023-01-10T06:06:13.602Z,1.63
2023-01-10T06:08:41.527Z,1.98
2023-01-10T06:11:11.053Z,1.85
2023-01-10T06:13:39.399Z,1.73
2023-01-10T06:16:07.869Z,2.15
2023-01-10T06:18:35.927Z,1.95
2023-01-10T06:21:03.868Z,2.10
2023-01-10T06:23:31.708Z,2.10
2023-01-10T06:25:59.542Z,1.60
2023-01-10T06:28:28.853Z,1.90
2023-01-10T06:30:56.660Z,1.70
2023-01-10T06:33:24.575Z,2.60
2023-01-10T06:35:53.116Z,2.20
2023-01-10T06:38:21.490Z,2.20
2023-01-10T06:40:49.599Z,2.17
2023-01-10T06:43:18.010Z,3.08
2023-01-10T06:45:47.834Z,2.17
2023-01-10T06:48:16.549Z,2.60
2023-01-10T06:50:44.846Z,2.70
2023-01-10T06:53:13.297Z,1.95
2023-01-10T06:55:41.641Z,1.98
2023-01-10T06:58:10.126Z,2.33
2023-01-10T07:00:38.589Z,2.22
2023-01-10T07:03:10.079Z,2.40
2023-01-10T07:05:38.412Z,3.00
2023-01-10T07:08:06.687Z,2.55
2023-01-10T07:10:35.095Z,2.30
2023-01-10T07:13:03.360Z,2.05
2023-01-10T07:15:31.809Z,2.75
2023-01-10T07:18:00.498Z,2.08
2023-01-10T07:20:30.521Z,2.05
2023-01-10T07:23:00.350Z,2.15
2023-01-10T07:25:29.714Z,2.50
2023-01-10T07:27:58.348Z,2.30
2023-01-10T07:30:26.784Z,2.67
2023-01-10T07:32:56.256Z,2.72
2023-01-10T07:35:25.522Z,2.47
2023-01-10T07:37:58.056Z,2.45
2023-01-10T07:40:26.976Z,2.70
2023-01-10T07:42:58.106Z,3.28
2023-01-10T07:45:29.819Z,3.40
2023-01-10T07:47:58.802Z,2.92
2023-01-10T07:50:28.872Z,3.47
2023-01-10T07:53:00.130Z,3.40
2023-01-10T07:55:29.037Z,2.95
2023-01-10T07:57:57.477Z,3.67
2023-01-10T08:00:26.246Z,4.05
2023-01-10T08:02:55.275Z,4.30
2023-01-10T08:05:23.957Z,4.80
2023-01-10T08:07:52.724Z,4.25
2023-01-10T08:10:22.502Z,4.00
2023-01-10T08:12:51.346Z,3.28
2023-01-10T08:15:19.506Z,3.42
2023-01-10T08:17:47.838Z,3.00
2023-01-10T08:20:16.464Z,3.00
2023-01-10T08:22:44.776Z,2.47
2023-01-10T08:25:13.236Z,2.88
2023-01-10T08:27:42.923Z,2.83
2023-01-10T08:30:12.399Z,2.50
2023-01-10T08:32:40.526Z,2.90
2023-01-10T08:35:09.463Z,3.70
2023-01-10T08:37:37.714Z,2.78
2023-01-10T08:40:07.189Z,2.65
2023-01-10T08:42:35.552Z,3.10
2023-01-10T08:45:05.887Z,2.72
2023-01-10T08:47:37.405Z,2.88
2023-01-10T08:50:08.087Z,2.72
2023-01-10T08:52:36.374Z,2.85
2023-01-10T08:55:05.029Z,3.10
2023-01-10T08:57:33.207Z,3.15
2023-01-10T09:00:01.487Z,2.70
2023-01-10T09:02:31.400Z,2.70
2023-01-10T09:04:59.790Z,2.83
2023-01-10T09:07:28.041Z,3.00
2023-01-10T09:09:56.275Z,2.63
2023-01-10T09:12:43.328Z,3.25
2023-01-10T09:17:41.858Z,2.63
2023-01-10T09:20:11.676Z,3.40
2023-01-10T09:22:40.179Z,2.70
2023-01-10T09:25:09.201Z,2.88
2023-01-10T09:27:42.686Z,4.88
2023-01-10T09:30:12.031Z,3.13
2023-01-10T09:32:42.007Z,4.03
2023-01-10T09:35:10.280Z,3.60
2023-01-10T09:37:38.357Z,3.20
2023-01-10T09:40:08.459Z,3.65
2023-01-10T09:42:51.814Z,4.00
2023-01-10T09:45:29.267Z,3.92
2023-01-10T09:48:03.766Z,4.72
2023-01-10T09:50:40.647Z,3.78
2023-01-10T09:53:14.091Z,4.10
2023-01-10T09:55:43.015Z,6.35
2023-01-10T09:58:14.850Z,5.40
2023-01-10T10:00:46.836Z,5.25
2023-01-10T10:03:22.945Z,5.15
2023-01-10T10:05:55.980Z,4.88
2023-01-10T10:08:26.666Z,4.85
2023-01-10T10:11:04.872Z,4.30
2023-01-10T10:13:45.693Z,4.35
2023-01-10T10:16:25.110Z,3.92
2023-01-10T10:19:06.465Z,3.80
2023-01-10T10:21:52.170Z,3.78
2023-01-10T10:24:34.836Z,4.18
2023-01-10T10:27:12.182Z,3.65
2023-01-10T10:30:09.541Z,4.38
2023-01-10T10:32:59.669Z,4.70
2023-01-10T10:35:34.255Z,4.10
2023-01-10T10:38:09.718Z,4.38
2023-01-10T10:40:42.885Z,4.60
2023-01-10T10:43:22.121Z,3.60
2023-01-10T10:45:55.827Z,3.90
2023-01-10T10:48:27.519Z,3.92
2023-01-10T10:51:04.038Z,3.45
2023-01-10T10:53:33.877Z,3.08
2023-01-10T10:56:03.434Z,3.58
2023-01-10T10:58:32.541Z,3.60
2023-01-10T11:01:01.255Z,3.63
2023-01-10T11:03:40.626Z,3.50
2023-01-10T11:06:11.462Z,3.05
2023-01-10T11:08:43.604Z,3.22
2023-01-10T11:11:20.819Z,3.08
2023-01-10T11:13:54.574Z,2.85
2023-01-10T11:16:29.034Z,3.75
2023-01-10T11:19:22.747Z,3.95
2023-01-10T11:21:55.805Z,3.50
2023-01-10T11:24:33.400Z,3.30
2023-01-10T11:27:05.379Z,3.80
2023-01-10T11:29:39.955Z,3.45
2023-01-10T11:32:15.665Z,3.72
2023-01-10T11:34:50.653Z,3.70
2023-01-10T11:37:23.039Z,3.58
2023-01-10T11:40:15.255Z,3.92
2023-01-10T11:42:43.659Z,3.45
2023-01-10T11:45:23.848Z,4.05
2023-01-10T11:47:57.747Z,4.20
2023-01-10T11:50:27.839Z,4.78
2023-01-10T11:58:21.462Z,3.92
2023-01-10T12:00:50.840Z,4.43
2023-01-10T12:03:23.227Z,5.22
2023-01-10T12:05:54.156Z,5.20
2023-01-10T12:08:28.039Z,4.05
2023-01-10T12:11:02.195Z,3.47
2023-01-10T12:13:31.813Z,3.60
2023-01-10T12:16:22.714Z,3.80
2023-01-10T12:18:52.977Z,3.20
2023-01-10T12:21:27.213Z,3.22
2023-01-10T12:24:00.144Z,4.32
2023-01-10T12:26:30.599Z,3.67
2023-01-10T12:29:06.160Z,3.85
2023-01-10T12:31:36.076Z,3.72
2023-01-10T12:34:10.080Z,4.15
2023-01-10T12:36:46.989Z,3.08
2023-01-10T12:39:23.655Z,3.13
2023-01-10T12:44:50.104Z,2.00
2023-01-10T12:47:28.843Z,2.05
2023-01-10T12:50:01.199Z,1.63
2023-01-10T12:52:34.588Z,2.15
2023-01-10T12:55:05.310Z,2.60
2023-01-10T12:57:39.988Z,2.03
2023-01-10T13:00:20.271Z,2.08
2023-01-10T13:02:53.380Z,1.75
2023-01-10T13:05:24.106Z,2.15
2023-01-10T13:07:55.041Z,2.70
2023-01-10T13:10:26.549Z,2.17
2023-01-10T13:12:59.736Z,2.58
2023-01-10T13:15:31.163Z,2.08
2023-01-10T13:18:05.504Z,2.25
2023-01-10T13:20:40.607Z,2.05
2023-01-10T13:23:24.370Z,2.42
2023-01-10T13:26:00.473Z,2.67
2023-01-10T13:28:30.397Z,3.10
2023-01-10T13:31:01.610Z,5.05
2023-01-10T13:33:32.828Z,3.50
2023-01-10T13:36:11.307Z,4.38
2023-01-10T13:38:50.110Z,4.97
2023-01-10T13:41:38.853Z,2.00
2023-01-10T13:44:10.124Z,2.60
2023-01-10T13:46:50.321Z,2.45
2023-01-10T13:49:45.642Z,2.22
2023-01-10T13:52:41.111Z,1.70
2023-01-10T13:55:34.542Z,2.10
2023-01-10T13:58:45.901Z,6.80
2023-01-10T14:01:45.142Z,3.28
2023-01-10T14:04:21.275Z,3.22
2023-01-10T14:06:54.988Z,2.65
2023-01-10T14:09:37.431Z,2.80
2023-01-10T14:12:09.451Z,2.30
2023-01-10T14:14:41.968Z,1.98
2023-01-10T14:17:20.553Z,1.80
2023-01-10T14:19:58.668Z,2.95
2023-01-10T14:22:31.719Z,1.73
2023-01-10T14:25:01.712Z,1.95
2023-01-10T14:27:38.241Z,2.00
2023-01-10T14:32:39.647Z,2.00
2023-01-10T14:35:14.433Z,2.60
2023-01-10T14:37:45.676Z,2.58
2023-01-10T14:40:29.288Z,2.85
2023-01-10T14:43:00.329Z,12.38
2023-01-10T14:45:38.485Z,6.70
2023-01-10T14:48:27.592Z,2.88
2023-01-10T14:51:21.892Z,2.03
2023-01-10T14:53:57.507Z,1.95
2023-01-10T14:56:27.039Z,2.47
2023-01-10T14:58:54.985Z,2.15
2023-01-10T15:01:27.999Z,1.65
2023-01-10T15:03:57.300Z,2.08
2023-01-10T15:06:26.041Z,2.25
2023-01-10T15:09:00.811Z,3.05
2023-01-10T15:11:30.605Z,2.55
2023-01-10T15:14:03.730Z,2.40
2023-01-10T15:16:34.178Z,3.42
2023-01-10T15:19:02.236Z,2.80
2023-01-10T15:21:30.098Z,2.30
2023-01-10T15:23:58.089Z,3.33
2023-01-10T15:26:30.197Z,2.90
2023-01-10T15:29:11.208Z,1.77
2023-01-10T15:31:41.718Z,2.50
2023-01-10T15:34:14.815Z,3.58
2023-01-10T15:36:46.676Z,5.47
2023-01-10T15:39:20.417Z,8.60
2023-01-10T15:41:49.039Z,7.93
2023-01-10T15:44:24.858Z,7.85
2023-01-10T15:46:57.767Z,7.63
2023-01-10T15:49:26.437Z,8.02
2023-01-10T15:51:54.333Z,8.15
2023-01-10T15:54:33.813Z,9.38
2023-01-10T15:57:20.978Z,8.90
2023-01-10T16:02:29.908Z,7.40
2023-01-10T16:04:59.830Z,7.40
2023-01-10T16:07:30.334Z,6.85
2023-01-10T16:10:02.474Z,8.10
2023-01-10T16:12:54.826Z,7.45
2023-01-10T16:15:24.637Z,7.07
2023-01-10T16:17:54.246Z,7.22
2023-01-10T16:20:26.062Z,8.07
2023-01-10T16:22:54.366Z,8.10
2023-01-10T16:25:27.741Z,10.05
2023-01-10T16:27:56.495Z,9.65
2023-01-10T16:30:26.163Z,9.27
2023-01-10T16:32:57.578Z,9.13
2023-01-10T16:35:26.158Z,9.32
2023-01-10T16:37:56.685Z,8.40
2023-01-10T16:40:36.623Z,8.50
2023-01-10T16:43:23.776Z,11.15
2023-01-10T16:45:54.965Z,9.57
2023-01-10T16:48:24.139Z,8.75
2023-01-10T16:50:52.052Z,10.13
2023-01-10T16:53:21.153Z,9.55
2023-01-10T16:55:51.399Z,13.25
2023-01-10T16:58:20.938Z,12.88
2023-01-10T17:00:50.506Z,13.10
2023-01-10T17:03:22.445Z,18.98
2023-01-10T17:05:52.185Z,21.50
2023-01-10T17:08:21.344Z,20.88
2023-01-10T17:10:51.211Z,21.35
2023-01-10T17:13:27.440Z,19.88
2023-01-10T17:15:55.231Z,18.05
2023-01-10T17:18:25.052Z,17.75
2023-01-10T17:20:54.273Z,16.95
2023-01-10T17:23:22.239Z,14.85
2023-01-10T17:25:50.918Z,12.57
2023-01-10T17:28:19.681Z,12.75
2023-01-10T17:30:47.994Z,12.02
2023-01-10T17:33:15.777Z,12.80
2023-01-10T17:35:44.906Z,12.32
2023-01-10T17:38:16.824Z,12.05
2023-01-10T17:40:46.569Z,12.18
2023-01-10T17:43:15.532Z,12.65
2023-01-10T17:45:44.992Z,12.20
2023-01-10T17:48:16.158Z,12.85
2023-01-10T17:50:44.292Z,12.20
2023-01-10T17:53:13.693Z,12.05
2023-01-10T17:55:44.935Z,11.90
2023-01-10T17:58:12.924Z,13.95
2023-01-10T18:00:40.714Z,14.32
2023-01-10T18:03:08.966Z,14.05
2023-01-10T18:05:36.803Z,15.23
2023-01-10T18:08:06.090Z,17.42
2023-01-10T18:10:35.231Z,17.92
2023-01-10T18:13:03.653Z,21.08
2023-01-10T18:15:31.375Z,18.88
2023-01-10T18:17:59.376Z,19.42
2023-01-10T18:20:28.011Z,19.25
2023-01-10T18:23:17.042Z,22.70
2023-01-10T18:26:07.719Z,23.30
2023-01-10T18:28:42.074Z,22.15
2023-01-10T18:31:12.117Z,21.42
2023-01-10T18:33:39.921Z,18.13
2023-01-10T18:36:09.352Z,16.55
2023-01-10T18:38:37.871Z,15.18
2023-01-10T18:41:07.479Z,12.60
2023-01-10T18:43:36.614Z,12.45
2023-01-10T18:46:07.178Z,11.90
2023-01-10T18:48:35.148Z,11.95
2023-01-10T18:51:04.860Z,13.55
2023-01-10T18:53:33.108Z,11.55
2023-01-10T18:56:02.688Z,10.63
2023-01-10T18:58:33.888Z,10.50
2023-01-10T19:01:05.793Z,9.55
2023-01-10T19:03:33.991Z,11.07
2023-01-10T19:06:01.951Z,9.77
2023-01-10T19:08:33.781Z,16.52
2023-01-10T19:11:17.169Z,20.67
2023-01-10T19:13:47.963Z,11.43
2023-01-10T19:16:17.300Z,11.13
2023-01-10T19:18:48.451Z,11.27
2023-01-10T19:21:16.238Z,12.27
2023-01-10T19:23:44.904Z,14.85
2023-01-10T19:26:13.621Z,13.35
2023-01-10T19:28:42.906Z,15.15
2023-01-10T19:31:15.750Z,14.63
2023-01-10T19:33:44.483Z,18.90
2023-01-10T19:36:12.541Z,23.75
2023-01-10T19:38:40.323Z,18.50
2023-01-10T19:41:08.194Z,18.25
2023-01-10T19:43:36.052Z,18.63
2023-01-10T19:46:07.407Z,16.15
2023-01-10T19:48:38.522Z,14.70
2023-01-10T19:51:07.584Z,14.85
2023-01-10T19:53:36.353Z,16.52
2023-01-10T19:56:09.708Z,17.90
2023-01-10T19:58:39.150Z,18.35
2023-01-10T20:01:09.359Z,17.38
2023-01-10T20:03:41.128Z,17.88
2023-01-10T20:06:14.416Z,16.70
2023-01-10T20:08:42.402Z,15.20
2023-01-10T20:11:10.271Z,13.70
2023-01-10T20:13:44.669Z,11.18
2023-01-10T20:16:13.622Z,10.43
2023-01-10T20:18:43.218Z,9.65
2023-01-10T20:21:14.038Z,9.27
2023-01-10T20:23:42.651Z,8.05
2023-01-10T20:26:13.612Z,7.88
2023-01-10T20:28:42.869Z,7.28
2023-01-10T20:31:17.660Z,9.43
2023-01-10T20:33:47.349Z,11.85
2023-01-10T20:36:16.505Z,13.00
2023-01-10T20:38:44.425Z,12.65
2023-01-10T20:41:14.598Z,12.30
2023-01-10T20:43:42.637Z,12.38
2023-01-10T20:46:13.237Z,12.57
2023-01-10T20:48:42.081Z,11.32
2023-01-10T20:51:14.233Z,11.50
2023-01-10T20:53:42.430Z,11.90
2023-01-10T20:56:14.140Z,10.32
2023-01-10T20:58:44.614Z,8.43
2023-01-10T21:01:28.819Z,8.80
2023-01-10T21:04:01.550Z,8.85
2023-01-10T21:06:31.861Z,8.55
2023-01-10T21:09:01.045Z,8.75
2023-01-10T21:11:29.965Z,8.88
2023-01-10T21:13:58.498Z,8.05
2023-01-10T21:16:26.993Z,9.85
2023-01-10T21:18:55.981Z,11.30
2023-01-10T21:21:25.812Z,9.75
2023-01-10T21:23:56.698Z,10.02
2023-01-10T21:26:24.989Z,12.40
2023-01-10T21:28:56.714Z,10.70
2023-01-10T21:31:25.170Z,10.55
2023-01-10T21:33:55.443Z,9.30
2023-01-10T21:36:23.410Z,8.68
2023-01-10T21:38:51.336Z,8.32
2023-01-10T21:41:40.253Z,9.50
2023-01-10T21:44:09.290Z,11.85
2023-01-10T21:46:37.625Z,12.73
2023-01-10T21:49:06.150Z,14.02
2023-01-10T21:51:34.097Z,14.55
2023-01-10T21:54:01.921Z,15.85
2023-01-10T21:56:31.163Z,17.20
2023-01-10T21:58:59.157Z,14.93
2023-01-10T22:01:26.708Z,13.60
2023-01-10T22:03:54.453Z,13.05
2023-01-10T22:06:22.204Z,15.25
2023-01-10T22:08:51.709Z,12.07
2023-01-10T22:11:19.803Z,12.20
2023-01-10T22:13:51.113Z,10.93
2023-01-10T22:16:19.333Z,11.23
2023-01-10T22:18:47.420Z,10.13
2023-01-10T22:21:17.447Z,11.45
2023-01-10T22:23:46.181Z,12.07
2023-01-10T22:26:16.102Z,9.60
2023-01-10T22:28:43.985Z,11.52
2023-01-10T22:31:13.398Z,11.88
2023-01-10T22:33:43.231Z,10.48
2023-01-10T22:36:14.822Z,10.57
2023-01-10T22:38:43.328Z,9.30
2023-01-10T22:41:13.350Z,9.50
2023-01-10T22:43:42.078Z,8.20
2023-01-10T22:46:10.391Z,7.35
2023-01-10T22:48:40.364Z,7.32
2023-01-10T22:51:09.008Z,7.45
2023-01-10T22:53:37.407Z,6.97
2023-01-10T22:56:07.588Z,6.15
2023-01-10T22:58:35.923Z,7.43
2023-01-10T23:01:05.189Z,6.47
2023-01-10T23:03:33.536Z,6.90
2023-01-10T23:06:03.611Z,9.05
2023-01-10T23:08:32.233Z,7.28
2023-01-10T23:11:01.081Z,5.75
2023-01-10T23:13:30.148Z,6.03
2023-01-10T23:15:59.326Z,6.32
2023-01-10T23:18:28.370Z,5.90
2023-01-10T23:20:56.773Z,7.45
2023-01-10T23:23:29.853Z,7.38
2023-01-10T23:26:02.045Z,6.70
2023-01-10T23:28:31.580Z,6.57
2023-01-10T23:31:00.073Z,6.38
2023-01-10T23:33:28.339Z,5.40
2023-01-10T23:35:56.827Z,4.63
2023-01-10T23:38:25.264Z,4.40
2023-01-10T23:40:55.298Z,3.78
2023-01-10T23:43:25.585Z,4.95
2023-01-10T23:45:54.337Z,4.95
2023-01-10T23:48:22.648Z,4.95
2023-01-10T23:50:51.772Z,4.35
2023-01-10T23:53:20.717Z,4.53
2023-01-10T23:55:49.165Z,5.45
2023-01-10T23:58:18.942Z,5.50
